createdAt,value
2022-09-17T00:01:45.627Z,100.00
2022-09-17T00:04:14.026Z,100.00
2022-09-17T00:06:43.502Z,100.00
2022-09-17T00:09:12.207Z,100.00
2022-09-17T00:11:42.807Z,100.00
2022-09-17T00:14:16.185Z,100.00
2022-09-17T00:16:47.392Z,100.00
2022-09-17T00:19:19.510Z,100.00
2022-09-17T00:21:47.912Z,100.00
2022-09-17T00:24:17.861Z,100.00
2022-09-17T00:26:46.626Z,100.00
2022-09-17T00:29:15.307Z,100.00
2022-09-17T00:31:44.717Z,100.00
2022-09-17T00:34:13.325Z,100.00
2022-09-17T00:36:42.894Z,100.00
2022-09-17T00:39:12.770Z,100.00
2022-09-17T00:41:42.718Z,100.00
2022-09-17T00:44:50.820Z,100.00
2022-09-17T00:47:31.356Z,100.00
2022-09-17T00:50:23.274Z,100.00
2022-09-17T00:53:17.658Z,100.00
2022-09-17T00:55:49.221Z,100.00
2022-09-17T00:58:21.043Z,100.00
2022-09-17T01:00:49.358Z,100.00
2022-09-17T01:03:18.804Z,100.00
2022-09-17T01:06:17.321Z,100.00
2022-09-17T01:09:12.016Z,100.00
2022-09-17T01:12:01.116Z,100.00
2022-09-17T01:14:52.687Z,100.00
2022-09-17T01:17:45.985Z,100.00
2022-09-17T01:20:39.622Z,100.00
2022-09-17T01:23:17.348Z,100.00
2022-09-17T01:25:59.589Z,100.00
2022-09-17T01:28:34.477Z,100.00
2022-09-17T01:31:08.682Z,100.00
2022-09-17T01:33:43.714Z,100.00
2022-09-17T01:36:26.422Z,100.00
2022-09-17T01:38:57.246Z,100.00
2022-09-17T01:41:38.097Z,100.00
2022-09-17T01:44:25.456Z,100.00
2022-09-17T01:47:04.906Z,100.00
2022-09-17T01:49:37.951Z,100.00
2022-09-17T01:52:10.225Z,100.00
2022-09-17T01:54:51.245Z,100.00
2022-09-17T01:57:33.773Z,100.00
2022-09-17T02:00:18.108Z,100.00
2022-09-17T02:02:53.810Z,100.00
2022-09-17T02:05:32.584Z,100.00
2022-09-17T02:08:08.944Z,100.00
2022-09-17T02:10:45.317Z,100.00
2022-09-17T02:13:19.575Z,100.00
2022-09-17T02:15:57.618Z,100.00
2022-09-17T02:18:42.072Z,100.00
2022-09-17T02:21:21.843Z,100.00
2022-09-17T02:24:04.675Z,100.00
2022-09-17T02:26:38.655Z,100.00
2022-09-17T02:29:16.385Z,100.00
2022-09-17T02:31:44.885Z,100.00
2022-09-17T02:34:14.985Z,100.00
2022-09-17T02:36:43.333Z,100.00
2022-09-17T02:39:11.745Z,100.00
2022-09-17T02:42:05.448Z,100.00
2022-09-17T02:45:16.294Z,100.00
2022-09-17T02:48:03.458Z,100.00
2022-09-17T02:50:47.167Z,100.00
2022-09-17T02:53:34.481Z,100.00
2022-09-17T02:56:47.890Z,100.00
2022-09-17T02:59:38.889Z,100.00
2022-09-17T03:02:16.281Z,100.00
2022-09-17T03:04:47.176Z,100.00
2022-09-17T03:07:19.498Z,100.00
2022-09-17T03:09:47.919Z,100.00
2022-09-17T03:12:16.923Z,100.00
2022-09-17T03:14:45.821Z,100.00
2022-09-17T03:17:14.941Z,100.00
2022-09-17T03:19:43.292Z,100.00
2022-09-17T03:22:12.753Z,100.00
2022-09-17T03:24:41.749Z,100.00
2022-09-17T03:27:10.433Z,100.00
2022-09-17T03:29:38.765Z,100.00
2022-09-17T03:32:08.444Z,100.00
2022-09-17T03:34:36.869Z,100.00
2022-09-17T03:37:05.224Z,100.00
2022-09-17T03:39:34.890Z,100.00
2022-09-17T03:42:03.268Z,100.00
2022-09-17T03:44:31.587Z,100.00
2022-09-17T03:47:01.111Z,100.00
2022-09-17T03:49:31.525Z,100.00
2022-09-17T03:51:59.867Z,100.00
2022-09-17T03:54:28.212Z,100.00
2022-09-17T03:56:57.447Z,100.00
2022-09-17T03:59:26.233Z,100.00
2022-09-17T04:01:54.782Z,100.00
2022-09-17T04:04:23.349Z,100.00
2022-09-17T04:06:51.708Z,100.00
2022-09-17T04:09:19.986Z,100.00
2022-09-17T04:11:48.307Z,100.00
2022-09-17T04:14:16.570Z,100.00
2022-09-17T04:16:44.881Z,100.00
2022-09-17T04:19:13.226Z,100.00
2022-09-17T04:21:41.539Z,100.00
2022-09-17T04:24:10.003Z,100.00
2022-09-17T04:26:38.296Z,100.00
2022-09-17T04:29:09.219Z,100.00
2022-09-17T04:31:37.581Z,100.00
2022-09-17T04:34:06.420Z,100.00
2022-09-17T04:36:34.852Z,100.00
2022-09-17T04:39:03.638Z,100.00
2022-09-17T04:41:32.102Z,100.00
2022-09-17T04:44:00.536Z,100.00
2022-09-17T04:46:28.820Z,100.00
2022-09-17T04:48:57.149Z,100.00
2022-09-17T04:51:25.647Z,100.00
2022-09-17T04:53:53.942Z,100.00
2022-09-17T04:56:22.346Z,100.00
2022-09-17T04:58:50.972Z,100.00
2022-09-17T05:01:19.530Z,100.00
2022-09-17T05:03:48.401Z,100.00
2022-09-17T05:06:16.818Z,100.00
2022-09-17T05:08:45.129Z,100.00
2022-09-17T05:11:13.419Z,100.00
2022-09-17T05:13:41.844Z,100.00
2022-09-17T05:16:10.446Z,100.00
2022-09-17T05:18:39.327Z,100.00
2022-09-17T05:21:08.817Z,100.00
2022-09-17T05:23:37.099Z,100.00
2022-09-17T05:26:05.435Z,100.00
2022-09-17T05:28:34.364Z,100.00
2022-09-17T05:31:03.349Z,100.00
2022-09-17T05:33:32.160Z,100.00
2022-09-17T05:36:00.605Z,100.00
2022-09-17T05:38:28.886Z,100.00
2022-09-17T05:40:57.918Z,100.00
2022-09-17T05:43:26.917Z,100.00
2022-09-17T05:45:55.199Z,100.00
2022-09-17T05:48:23.702Z,100.00
2022-09-17T05:50:52.060Z,100.00
2022-09-17T05:53:24.625Z,100.00
2022-09-17T05:56:00.113Z,100.00
2022-09-17T05:58:29.470Z,100.00
2022-09-17T06:01:01.355Z,100.00
2022-09-17T06:03:29.998Z,100.00
2022-09-17T06:05:59.925Z,100.00
2022-09-17T06:08:29.521Z,100.00
2022-09-17T06:11:02.310Z,100.00
2022-09-17T06:13:31.224Z,100.00
2022-09-17T06:16:00.733Z,100.00
2022-09-17T06:18:30.818Z,100.00
2022-09-17T06:21:01.497Z,100.00
2022-09-17T06:23:35.478Z,100.00
2022-09-17T06:26:05.841Z,100.00
2022-09-17T06:28:37.843Z,100.00
2022-09-17T06:31:10.961Z,100.00
2022-09-17T06:33:39.355Z,100.00
2022-09-17T06:36:13.971Z,100.00
2022-09-17T06:38:43.631Z,100.00
2022-09-17T06:41:12.756Z,100.00
2022-09-17T06:43:43.134Z,100.00
2022-09-17T06:46:11.751Z,100.00
2022-09-17T06:48:40.160Z,100.00
2022-09-17T06:51:11.220Z,100.00
2022-09-17T06:53:40.235Z,100.00
2022-09-17T06:56:09.655Z,100.00
2022-09-17T06:58:38.380Z,100.00
2022-09-17T07:01:06.758Z,100.00
2022-09-17T07:03:35.286Z,100.00
2022-09-17T07:06:04.485Z,100.00
2022-09-17T07:08:34.807Z,98.84
2022-09-17T07:11:03.158Z,96.56
2022-09-17T07:13:31.867Z,95.45
2022-09-17T07:16:02.006Z,94.06
2022-09-17T07:18:30.716Z,93.19
2022-09-17T07:21:04.515Z,91.29
2022-09-17T07:23:35.570Z,92.00
2022-09-17T07:26:06.918Z,91.89
2022-09-17T07:28:35.217Z,91.47
2022-09-17T07:31:05.667Z,89.71
2022-09-17T07:33:35.353Z,89.24
2022-09-17T07:36:15.180Z,88.73
2022-09-17T07:38:45.112Z,92.87
2022-09-17T07:41:15.573Z,94.41
2022-09-17T07:43:44.677Z,96.44
2022-09-17T07:46:19.289Z,95.14
2022-09-17T07:48:49.794Z,96.01
2022-09-17T07:51:21.890Z,97.00
2022-09-17T07:53:58.183Z,99.44
2022-09-17T07:56:27.774Z,100.00
2022-09-17T07:58:56.271Z,100.00
2022-09-17T08:01:24.781Z,100.00
2022-09-17T08:04:00.665Z,99.37
2022-09-17T08:06:29.940Z,96.48
2022-09-17T08:09:02.470Z,94.83
2022-09-17T08:11:54.612Z,96.70
2022-09-17T08:14:20.447Z,96.99
2022-09-17T08:16:48.788Z,97.63
2022-09-17T08:19:19.043Z,97.98
2022-09-17T08:21:47.330Z,98.16
2022-09-17T08:24:15.555Z,99.64
2022-09-17T08:26:44.035Z,99.87
2022-09-17T08:29:12.433Z,100.00
2022-09-17T08:31:41.448Z,100.00
2022-09-17T08:34:10.540Z,100.00
2022-09-17T08:36:38.865Z,100.00
2022-09-17T08:39:07.653Z,100.00
2022-09-17T08:41:49.935Z,92.74
2022-09-17T08:44:36.587Z,91.25
2022-09-17T08:47:15.360Z,88.86
2022-09-17T08:49:54.447Z,84.35
2022-09-17T08:52:42.822Z,81.98
2022-09-17T08:55:26.990Z,85.61
2022-09-17T08:58:27.495Z,79.10
2022-09-17T09:01:11.774Z,85.82
2022-09-17T09:03:59.676Z,86.49
2022-09-17T09:06:35.376Z,87.00
2022-09-17T09:09:14.308Z,85.88
2022-09-17T09:11:48.226Z,87.78
2022-09-17T09:14:20.395Z,87.05
2022-09-17T09:16:52.618Z,84.12
2022-09-17T09:19:28.344Z,83.41
2022-09-17T09:22:05.962Z,86.57
2022-09-17T09:24:42.973Z,85.96
2022-09-17T09:27:22.390Z,83.23
2022-09-17T09:29:57.973Z,82.98
2022-09-17T09:32:29.256Z,82.45
2022-09-17T09:35:33.869Z,79.53
2022-09-17T09:38:09.269Z,77.92
2022-09-17T09:40:58.184Z,77.32
2022-09-17T09:44:04.035Z,78.45
2022-09-17T09:47:05.372Z,81.06
2022-09-17T09:49:56.779Z,76.43
2022-09-17T09:53:03.055Z,75.12
2022-09-17T09:55:44.473Z,76.42
2022-09-17T09:58:21.881Z,77.40
2022-09-17T10:00:51.420Z,73.75
2022-09-17T10:03:22.747Z,71.65
2022-09-17T10:05:59.020Z,70.14
2022-09-17T10:08:29.001Z,72.58
2022-09-17T10:11:16.836Z,72.75
2022-09-17T10:13:46.118Z,72.55
2022-09-17T10:16:26.807Z,72.45
2022-09-17T10:19:04.246Z,72.24
2022-09-17T10:21:34.986Z,75.96
2022-09-17T10:24:14.272Z,76.36
2022-09-17T10:26:43.971Z,77.62
2022-09-17T10:29:16.557Z,79.02
2022-09-17T10:31:52.835Z,80.97
2022-09-17T10:34:24.424Z,81.33
2022-09-17T10:36:53.625Z,83.66
2022-09-17T10:39:34.272Z,84.04
2022-09-17T10:42:11.710Z,85.35
2022-09-17T10:44:51.899Z,85.58
2022-09-17T10:47:25.761Z,85.16
2022-09-17T10:50:05.445Z,83.31
2022-09-17T10:52:37.931Z,82.16
2022-09-17T10:55:15.509Z,81.66
2022-09-17T10:58:08.254Z,77.34
2022-09-17T11:00:45.221Z,76.63
2022-09-17T11:03:45.054Z,78.09
2022-09-17T11:06:51.264Z,72.25
2022-09-17T11:09:34.436Z,72.90
2022-09-17T11:12:32.900Z,71.41
2022-09-17T11:15:20.698Z,72.44
2022-09-17T11:17:58.449Z,76.65
2022-09-17T11:20:37.413Z,76.42
2022-09-17T11:23:47.227Z,69.94
2022-09-17T11:26:36.295Z,75.52
2022-09-17T11:29:29.609Z,72.68
2022-09-17T11:32:21.668Z,70.45
2022-09-17T11:35:05.573Z,70.53
2022-09-17T11:37:43.603Z,71.75
2022-09-17T11:40:36.932Z,71.56
2022-09-17T11:43:27.966Z,72.06
2022-09-17T11:46:15.965Z,71.36
2022-09-17T11:48:50.846Z,73.03
2022-09-17T11:51:27.082Z,70.85
2022-09-17T11:54:37.596Z,68.51
2022-09-17T11:57:27.584Z,62.37
2022-09-17T12:00:16.325Z,64.58
2022-09-17T12:03:14.790Z,67.04
2022-09-17T12:05:54.792Z,68.39
2022-09-17T12:08:34.081Z,68.45
2022-09-17T12:11:14.773Z,67.45
2022-09-17T12:13:48.671Z,70.33
2022-09-17T12:16:20.138Z,70.97
2022-09-17T12:19:02.720Z,71.84
2022-09-17T12:21:37.767Z,71.37
2022-09-17T12:24:23.554Z,70.98
2022-09-17T12:30:26.559Z,75.99
2022-09-17T12:33:10.816Z,76.22
2022-09-17T12:36:05.245Z,76.30
2022-09-17T12:38:52.418Z,75.92
2022-09-17T12:41:27.363Z,77.44
2022-09-17T12:44:36.466Z,76.31
2022-09-17T12:47:25.106Z,76.71
2022-09-17T12:50:09.709Z,78.42
2022-09-17T12:52:54.013Z,78.97
2022-09-17T12:55:58.005Z,74.88
2022-09-17T12:58:46.392Z,71.66
2022-09-17T13:01:34.568Z,70.56
2022-09-17T13:04:43.538Z,73.89
2022-09-17T13:07:53.457Z,75.78
2022-09-17T13:10:44.732Z,74.40
2022-09-17T13:14:04.076Z,74.54
2022-09-17T13:16:40.030Z,71.91
2022-09-17T13:19:57.857Z,73.23
2022-09-17T13:22:36.385Z,73.38
2022-09-17T13:25:08.506Z,74.69
2022-09-17T13:27:38.216Z,75.01
2022-09-17T13:30:11.898Z,75.18
2022-09-17T13:32:40.367Z,75.50
2022-09-17T13:35:11.643Z,76.63
2022-09-17T13:37:52.680Z,77.43
2022-09-17T13:40:42.642Z,78.66
2022-09-17T13:43:18.071Z,78.09
2022-09-17T13:46:11.021Z,76.12
2022-09-17T13:48:49.488Z,75.63
2022-09-17T13:51:30.075Z,74.13
2022-09-17T13:54:01.528Z,72.27
2022-09-17T13:56:34.798Z,71.39
2022-09-17T13:59:23.323Z,69.77
2022-09-17T14:02:02.295Z,65.63
2022-09-17T14:04:40.571Z,62.12
2022-09-17T14:07:32.139Z,63.12
2022-09-17T14:10:02.758Z,66.60
2022-09-17T14:12:44.683Z,64.24
2022-09-17T14:15:43.358Z,65.25
2022-09-17T14:18:35.553Z,66.11
2022-09-17T14:21:09.879Z,67.99
2022-09-17T14:23:59.464Z,67.80
2022-09-17T14:26:51.110Z,69.19
2022-09-17T14:29:30.572Z,64.10
2022-09-17T14:31:59.428Z,66.43
2022-09-17T14:34:28.730Z,66.40
2022-09-17T14:36:57.073Z,63.67
2022-09-17T14:39:34.234Z,64.71
2022-09-17T14:42:05.658Z,65.15
2022-09-17T14:44:35.600Z,66.75
2022-09-17T14:47:14.467Z,66.94
2022-09-17T14:49:43.261Z,67.12
2022-09-17T14:52:24.851Z,67.50
2022-09-17T14:55:31.211Z,68.49
2022-09-17T14:58:04.902Z,69.74
2022-09-17T15:00:35.838Z,71.81
2022-09-17T15:03:06.118Z,72.21
2022-09-17T15:05:42.643Z,72.96
2022-09-17T15:08:11.289Z,73.76
2022-09-17T15:10:49.242Z,76.36
2022-09-17T15:13:23.826Z,75.60
2022-09-17T15:15:59.714Z,74.37
2022-09-17T15:18:38.611Z,73.90
2022-09-17T15:21:32.333Z,74.81
2022-09-17T15:24:14.182Z,75.48
2022-09-17T15:26:46.730Z,76.34
2022-09-17T15:29:15.718Z,76.64
2022-09-17T15:31:44.217Z,76.15
2022-09-17T15:34:12.719Z,76.87
2022-09-17T15:36:41.283Z,76.27
2022-09-17T15:39:29.509Z,72.81
2022-09-17T15:41:58.567Z,73.65
2022-09-17T15:44:31.662Z,73.94
2022-09-17T15:47:39.149Z,67.71
2022-09-17T15:50:14.307Z,68.98
2022-09-17T15:52:43.410Z,70.18
2022-09-17T15:55:51.257Z,67.58
2022-09-17T15:58:23.950Z,70.27
2022-09-17T16:01:14.770Z,69.74
2022-09-17T16:03:45.948Z,70.26
2022-09-17T16:06:20.748Z,71.28
2022-09-17T16:08:50.657Z,72.57
2022-09-17T16:11:27.140Z,73.48
2022-09-17T16:13:57.248Z,74.93
2022-09-17T16:16:28.655Z,77.20
2022-09-17T16:18:57.267Z,81.34
2022-09-17T16:21:26.002Z,85.23
2022-09-17T16:23:54.492Z,87.14
2022-09-17T16:26:28.126Z,88.91
2022-09-17T16:29:10.615Z,89.38
2022-09-17T16:31:38.940Z,90.02
2022-09-17T16:34:08.657Z,89.92
2022-09-17T16:36:37.085Z,90.21
2022-09-17T16:39:05.369Z,89.40
2022-09-17T16:41:33.905Z,90.97
2022-09-17T16:44:02.650Z,94.88
2022-09-17T16:46:31.079Z,96.07
2022-09-17T16:49:00.770Z,98.61
2022-09-17T16:51:29.337Z,100.00
2022-09-17T16:53:57.947Z,100.00
2022-09-17T16:56:26.913Z,100.00
2022-09-17T16:58:56.882Z,100.00
2022-09-17T17:01:27.487Z,100.00
2022-09-17T17:03:59.610Z,100.00
2022-09-17T17:06:27.997Z,100.00
2022-09-17T17:08:58.118Z,100.00
2022-09-17T17:11:28.043Z,100.00
2022-09-17T17:13:56.398Z,100.00
2022-09-17T17:16:25.911Z,100.00
2022-09-17T17:18:55.682Z,100.00
2022-09-17T17:21:24.302Z,100.00
2022-09-17T17:23:52.809Z,100.00
2022-09-17T17:26:21.689Z,100.00
2022-09-17T17:28:50.128Z,100.00
2022-09-17T17:31:18.938Z,100.00
2022-09-17T17:33:47.794Z,100.00
2022-09-17T17:36:16.374Z,100.00
2022-09-17T17:38:44.898Z,100.00
2022-09-17T17:41:15.066Z,100.00
2022-09-17T17:43:44.010Z,100.00
2022-09-17T17:46:12.867Z,100.00
2022-09-17T17:48:43.750Z,100.00
2022-09-17T17:51:19.198Z,100.00
2022-09-17T17:53:47.530Z,100.00
2022-09-17T17:56:15.861Z,100.00
2022-09-17T17:58:44.410Z,100.00
2022-09-17T18:01:35.329Z,100.00
2022-09-17T18:04:07.880Z,100.00
2022-09-17T18:06:36.564Z,100.00
2022-09-17T18:09:06.354Z,99.52
2022-09-17T18:11:34.992Z,98.71
2022-09-17T18:14:03.302Z,98.16
2022-09-17T18:16:31.933Z,98.48
2022-09-17T18:19:00.403Z,97.97
2022-09-17T18:21:28.953Z,98.44
2022-09-17T18:23:57.624Z,98.31
2022-09-17T18:26:29.233Z,98.94
2022-09-17T18:28:57.636Z,99.12
2022-09-17T18:31:29.462Z,99.46
2022-09-17T18:34:02.200Z,100.00
2022-09-17T18:36:35.696Z,100.00
2022-09-17T18:41:57.650Z,100.00
2022-09-17T18:44:26.384Z,100.00
2022-09-17T18:46:55.010Z,100.00
2022-09-17T18:49:23.492Z,100.00
2022-09-17T18:51:52.822Z,100.00
2022-09-17T18:54:21.237Z,100.00
2022-09-17T18:56:49.493Z,100.00
2022-09-17T18:59:17.768Z,100.00
2022-09-17T19:01:46.143Z,100.00
2022-09-17T19:04:14.653Z,100.00
2022-09-17T19:06:43.004Z,100.00
2022-09-17T19:09:11.944Z,100.00
2022-09-17T19:11:40.360Z,100.00
2022-09-17T19:14:10.472Z,99.83
2022-09-17T19:16:38.867Z,99.89
2022-09-17T19:19:07.627Z,99.40
2022-09-17T19:21:36.494Z,99.54
2022-09-17T19:24:04.992Z,100.00
2022-09-17T19:26:33.275Z,100.00
2022-09-17T19:29:02.308Z,100.00
2022-09-17T19:31:32.921Z,100.00
2022-09-17T19:34:01.402Z,100.00
2022-09-17T19:36:29.875Z,100.00
2022-09-17T19:38:58.880Z,100.00
2022-09-17T19:41:27.404Z,100.00
2022-09-17T19:43:56.846Z,100.00
2022-09-17T19:46:28.800Z,100.00
2022-09-17T19:48:58.906Z,100.00
2022-09-17T19:51:29.674Z,100.00
2022-09-17T19:53:57.974Z,100.00
2022-09-17T19:56:27.865Z,100.00
2022-09-17T19:59:15.102Z,100.00
2022-09-17T20:01:48.567Z,100.00
2022-09-17T20:04:20.645Z,100.00
2022-09-17T20:06:48.915Z,100.00
2022-09-17T20:09:17.484Z,100.00
2022-09-17T20:11:45.982Z,100.00
2022-09-17T20:14:14.898Z,100.00
2022-09-17T20:16:45.013Z,100.00
2022-09-17T20:19:17.186Z,100.00
2022-09-17T20:21:46.535Z,100.00
2022-09-17T20:24:15.971Z,99.73
2022-09-17T20:26:44.233Z,98.71
2022-09-17T20:29:12.651Z,98.33
2022-09-17T20:31:40.978Z,98.04
2022-09-17T20:34:12.626Z,97.83
2022-09-17T20:36:40.961Z,97.10
2022-09-17T20:39:14.205Z,97.89
2022-09-17T20:41:44.943Z,97.11
2022-09-17T20:44:13.321Z,97.77
2022-09-17T20:46:42.736Z,98.79
2022-09-17T20:49:11.079Z,100.00
2022-09-17T20:51:39.557Z,100.00
2022-09-17T20:54:09.980Z,100.00
2022-09-17T20:56:39.390Z,100.00
2022-09-17T20:59:17.878Z,100.00
2022-09-17T21:01:49.597Z,100.00
2022-09-17T21:04:20.666Z,100.00
2022-09-17T21:06:52.852Z,100.00
2022-09-17T21:09:21.241Z,100.00
2022-09-17T21:11:49.937Z,100.00
2022-09-17T21:14:20.690Z,100.00
2022-09-17T21:16:49.205Z,100.00
2022-09-17T21:19:20.208Z,100.00
2022-09-17T21:21:51.653Z,100.00
2022-09-17T21:24:20.521Z,100.00
2022-09-17T21:26:51.379Z,100.00
2022-09-17T21:29:20.039Z,100.00
2022-09-17T21:31:48.427Z,100.00
2022-09-17T21:34:19.393Z,100.00
2022-09-17T21:36:49.149Z,100.00
2022-09-17T21:39:18.476Z,100.00
2022-09-17T21:41:48.148Z,100.00
2022-09-17T21:44:16.483Z,100.00
2022-09-17T21:46:45.217Z,100.00
2022-09-17T21:49:13.821Z,100.00
2022-09-17T21:51:43.061Z,100.00
2022-09-17T21:54:13.641Z,100.00
2022-09-17T21:56:41.973Z,100.00
2022-09-17T21:59:13.334Z,100.00
2022-09-17T22:01:46.256Z,100.00
2022-09-17T22:04:17.641Z,100.00
2022-09-17T22:06:48.082Z,100.00
2022-09-17T22:09:21.338Z,100.00
2022-09-17T22:11:50.856Z,100.00
2022-09-17T22:14:21.896Z,100.00
2022-09-17T22:16:54.666Z,100.00
2022-09-17T22:19:24.295Z,100.00
2022-09-17T22:21:54.581Z,100.00
2022-09-17T22:24:24.126Z,100.00
2022-09-17T22:26:57.721Z,100.00
2022-09-17T22:29:28.598Z,100.00
2022-09-17T22:31:57.349Z,100.00
2022-09-17T22:34:26.581Z,100.00
2022-09-17T22:36:54.902Z,100.00
2022-09-17T22:39:23.200Z,100.00
2022-09-17T22:41:51.660Z,100.00
2022-09-17T22:44:20.164Z,100.00
2022-09-17T22:46:50.947Z,100.00
2022-09-17T22:49:19.959Z,100.00
2022-09-17T22:51:48.492Z,100.00
2022-09-17T22:54:18.816Z,100.00
2022-09-17T22:56:48.333Z,100.00
2022-09-17T22:59:18.389Z,100.00
2022-09-17T23:01:47.065Z,100.00
2022-09-17T23:04:15.541Z,100.00
2022-09-17T23:06:44.131Z,100.00
2022-09-17T23:09:13.839Z,100.00
2022-09-17T23:11:43.145Z,100.00
2022-09-17T23:14:12.883Z,100.00
2022-09-17T23:16:48.147Z,100.00
2022-09-17T23:19:18.562Z,100.00
2022-09-17T23:21:47.180Z,100.00
2022-09-17T23:24:19.335Z,100.00
2022-09-17T23:26:48.571Z,100.00
2022-09-17T23:29:19.520Z,100.00
2022-09-17T23:31:48.125Z,100.00
2022-09-17T23:34:19.458Z,100.00
2022-09-17T23:36:47.879Z,100.00
2022-09-17T23:39:18.346Z,100.00
2022-09-17T23:41:48.013Z,100.00
2022-09-17T23:44:17.108Z,100.00
2022-09-17T23:46:47.282Z,100.00
2022-09-17T23:49:15.782Z,100.00
2022-09-17T23:51:44.754Z,100.00
2022-09-17T23:54:13.158Z,100.00
2022-09-17T23:56:43.543Z,100.00
2022-09-17T23:59:12.221Z,100.00
